Time;durP1;ratioP1;P1;durP2;ratioP2;P2;SDS_P1;SDS_P2;PMS_P1;PMS_P2;Temp;Humidity;BMP_temperature;BMP_pressure;BME280_temperature;BME280_humidity;BME280_pressure;Samples;Min_cycle;Max_cycle;Signal;HPM_P1;HPM_P2
2022/02/03 00:01:00;;;;;;;1.20;1.10;;;-5.00;99.90;;;;;;5046498;28;20201;-67
2022/02/03 00:03:49;;;;;;;2.23;2.07;;;-5.00;99.90;;;;;;5047571;28;20220;-67
2022/02/03 00:06:20;;;;;;;0.80;0.80;;;-5.10;99.90;;;;;;5044319;28;20201;-67
2022/02/03 00:22:30;;;;;;;0.80;0.80;;;-5.20;99.90;;;;;;5047750;28;20232;-67
2022/02/03 00:30:11;;;;;;;0.77;0.77;;;-5.20;99.90;;;;;;5052458;28;20259;-69
2022/02/03 00:48:33;;;;;;;4.30;1.70;;;-5.10;99.90;;;;;;5030538;28;20252;-67
2022/02/03 00:51:00;;;;;;;0.80;0.80;;;-5.20;99.90;;;;;;5034261;28;20750;-68
2022/02/03 00:53:27;;;;;;;0.80;0.80;;;-5.20;99.90;;;;;;5049397;28;20206;-68
2022/02/03 00:55:55;;;;;;;0.70;0.70;;;-5.20;99.90;;;;;;5050451;28;20225;-68
2022/02/03 00:58:25;;;;;;;0.70;0.70;;;-5.30;99.90;;;;;;5050697;28;20300;-68
2022/02/03 01:00:57;;;;;;;1.43;1.33;;;-5.30;99.90;;;;;;5050840;28;20232;-67
2022/02/03 01:03:28;;;;;;;0.80;0.80;;;-5.30;99.90;;;;;;5051671;28;20297;-67
2022/02/03 01:05:59;;;;;;;0.90;0.90;;;-5.40;99.90;;;;;;5050289;28;20201;-66
2022/02/03 01:08:26;;;;;;;0.90;0.90;;;-5.40;99.90;;;;;;5050838;28;20251;-67
2022/02/03 01:11:08;;;;;;;1.00;1.00;;;-5.40;99.90;;;;;;5050248;28;20244;-66
2022/02/03 01:13:54;;;;;;;0.80;0.80;;;-5.50;99.90;;;;;;5033239;28;20230;-68
2022/02/03 01:33:25;;;;;;;0.90;0.90;;;-5.50;99.90;;;;;;5017795;28;20245;-67
2022/02/03 01:45:53;;;;;;;0.70;0.70;;;-5.70;99.90;;;;;;5043233;28;20639;-67
2022/02/03 01:53:34;;;;;;;0.83;0.83;;;-5.60;99.90;;;;;;5049889;28;20259;-67
2022/02/03 01:56:06;;;;;;;0.80;0.80;;;-5.60;99.90;;;;;;5046942;28;20274;-67
2022/02/03 01:58:38;;;;;;;0.90;0.90;;;-5.60;99.90;;;;;;5048361;28;20248;-67
2022/02/03 02:01:04;;;;;;;0.90;0.90;;;-5.60;99.90;;;;;;5049361;28;20224;-68
2022/02/03 02:03:45;;;;;;;0.80;0.80;;;-5.60;99.90;;;;;;5046980;28;20209;-67
2022/02/03 02:06:49;;;;;;;0.80;0.80;;;-5.70;99.90;;;;;;5047100;28;20201;-67
2022/02/03 02:09:31;;;;;;;0.90;0.90;;;-5.60;99.90;;;;;;5045516;28;20202;-67
2022/02/03 02:12:32;;;;;;;1.10;1.10;;;-5.70;99.90;;;;;;5046837;28;20624;-67
2022/02/03 02:38:15;;;;;;;0.80;0.80;;;-5.80;99.90;;;;;;5048112;28;20263;-68
2022/02/03 02:41:52;;;;;;;0.80;0.80;;;-5.80;99.90;;;;;;5024826;28;20202;-67
2022/02/03 02:44:02;;;;;;;0.90;0.90;;;-5.80;99.90;;;;;;5026551;28;20221;-68
2022/02/03 02:46:43;;;;;;;0.80;0.80;;;-5.80;99.90;;;;;;5047555;28;20197;-68
2022/02/03 02:49:43;;;;;;;0.90;0.90;;;-5.80;99.90;;;;;;5042520;28;20213;-68
2022/02/03 02:52:14;;;;;;;0.73;0.73;;;-5.80;99.90;;;;;;5043095;28;20568;-68
2022/02/03 02:54:52;;;;;;;0.90;0.90;;;-5.80;99.90;;;;;;5038033;28;20238;-67
2022/02/03 03:38:20;;;;;;;0.90;0.90;;;-5.60;99.90;;;;;;5042810;28;20724;-68
2022/02/03 03:40:53;;;;;;;0.90;0.90;;;-5.60;99.90;;;;;;5046761;28;20209;-68
2022/02/03 03:43:40;;;;;;;0.90;0.90;;;-5.60;99.90;;;;;;5047780;28;20703;-68
2022/02/03 03:46:20;;;;;;;0.90;0.90;;;-5.60;99.90;;;;;;5046797;28;20212;-68
2022/02/03 03:49:13;;;;;;;1.77;1.67;;;-5.60;99.90;;;;;;5047834;28;20208;-68
2022/02/03 03:51:47;;;;;;;0.80;0.80;;;-5.60;99.90;;;;;;5045719;28;20686;-67
2022/02/03 03:54:33;;;;;;;0.90;0.90;;;-5.70;99.90;;;;;;5048278;28;20205;-69
2022/02/03 03:57:57;;;;;;;0.80;0.80;;;-5.70;99.90;;;;;;5029153;28;20260;-68
2022/02/03 04:28:39;;;;;;;1.83;1.73;;;-5.70;99.90;;;;;;5017117;28;20217;-68
2022/02/03 04:56:42;;;;;;;0.87;0.87;;;-5.60;99.90;;;;;;5045951;28;20775;-68
2022/02/03 05:02:42;;;;;;;0.90;0.90;;;-5.70;99.90;;;;;;5034934;28;20636;-67
2022/02/03 05:05:51;;;;;;;0.80;0.80;;;-5.80;99.90;;;;;;5083398;28;20213;-71
2022/02/03 05:11:50;;;;;;;0.83;0.83;;;-5.70;99.90;;;;;;5030852;28;20202;-69
2022/02/03 05:23:43;;;;;;;0.80;0.80;;;-5.80;99.90;;;;;;5025435;28;20206;-69
2022/02/03 06:05:57;;;;;;;0.90;0.90;;;-6.20;99.90;;;;;;5033701;28;20256;-69
2022/02/03 06:14:05;;;;;;;0.90;0.90;;;-6.10;99.90;;;;;;5049548;28;20651;-69
2022/02/03 06:21:28;;;;;;;0.90;0.90;;;-6.20;99.90;;;;;;5035415;28;20719;-69
2022/02/03 06:29:20;;;;;;;0.80;0.80;;;-6.20;99.90;;;;;;5048034;28;20331;-69
2022/02/03 06:31:48;;;;;;;0.80;0.80;;;-6.20;99.90;;;;;;5049076;28;20193;-69
2022/02/03 06:34:14;;;;;;;0.80;0.80;;;-6.20;99.90;;;;;;5048932;28;20205;-69
2022/02/03 06:36:41;;;;;;;0.90;0.90;;;-6.30;99.90;;;;;;5048822;28;20335;-69
2022/02/03 06:39:15;;;;;;;0.80;0.80;;;-6.20;99.90;;;;;;5046778;28;20209;-70
2022/02/03 06:41:41;;;;;;;0.83;0.83;;;-6.20;99.90;;;;;;5047557;28;20203;-69
2022/02/03 06:44:07;;;;;;;0.90;0.90;;;-6.20;99.90;;;;;;5047951;28;20210;-69
2022/02/03 06:46:34;;;;;;;1.10;1.10;;;-6.20;99.90;;;;;;5031174;28;20221;-69
2022/02/03 06:49:13;;;;;;;0.80;0.80;;;-6.30;99.90;;;;;;5048956;28;20284;-69
2022/02/03 06:51:47;;;;;;;0.90;0.90;;;-6.30;99.90;;;;;;5049459;28;20250;-74
2022/02/03 06:54:20;;;;;;;1.00;1.00;;;-6.30;99.90;;;;;;5049560;28;20687;-69
2022/02/03 06:56:55;;;;;;;0.90;0.90;;;-6.30;99.90;;;;;;5048974;28;20221;-69
2022/02/03 06:59:28;;;;;;;0.90;0.90;;;-6.30;99.90;;;;;;5047912;28;20212;-67
2022/02/03 07:01:53;;;;;;;0.90;0.90;;;-6.30;99.90;;;;;;5048733;28;20197;-67
2022/02/03 07:04:25;;;;;;;0.90;0.90;;;-6.30;99.90;;;;;;5047938;28;20228;-67
2022/02/03 07:06:51;;;;;;;1.00;1.00;;;-6.30;99.90;;;;;;5047536;28;20205;-68
2022/02/03 07:09:16;;;;;;;1.70;1.60;;;-6.30;99.90;;;;;;5042689;28;20255;-67
2022/02/03 07:11:43;;;;;;;0.80;0.80;;;-6.30;99.90;;;;;;5046101;28;20206;-66
2022/02/03 07:14:10;;;;;;;0.80;0.80;;;-6.20;99.90;;;;;;5045343;28;20649;-67
2022/02/03 07:16:46;;;;;;;0.80;0.80;;;-6.20;99.90;;;;;;5044076;28;20229;-66
2022/02/03 07:19:11;;;;;;;0.90;0.90;;;-6.20;99.90;;;;;;5043866;28;20591;-66
2022/02/03 07:21:37;;;;;;;0.90;0.90;;;-6.20;99.90;;;;;;5035330;28;20221;-67
2022/02/03 07:24:03;;;;;;;0.90;0.90;;;-6.20;99.90;;;;;;5040532;28;20213;-67
2022/02/03 07:26:29;;;;;;;0.90;0.90;;;-6.10;99.90;;;;;;5040979;28;20826;-67
2022/02/03 07:28:55;;;;;;;0.73;0.73;;;-6.20;99.90;;;;;;5039834;28;20574;-66
2022/02/03 07:31:20;;;;;;;0.90;0.90;;;-6.10;99.90;;;;;;5044288;28;20296;-67
2022/02/03 07:33:46;;;;;;;0.87;0.87;;;-6.10;99.90;;;;;;5040165;28;20292;-67
2022/02/03 07:36:12;;;;;;;1.43;1.33;;;-6.10;99.90;;;;;;5038561;28;20630;-67
2022/02/03 07:38:39;;;;;;;0.90;0.90;;;-6.10;99.90;;;;;;5045972;28;20209;-67
2022/02/03 07:41:05;;;;;;;2.47;1.57;;;-6.10;99.90;;;;;;5045406;28;20231;-67
2022/02/03 07:43:30;;;;;;;0.80;0.80;;;-6.10;99.90;;;;;;5047676;28;20292;-68
2022/02/03 07:45:57;;;;;;;0.80;0.80;;;-6.20;99.90;;;;;;5047892;28;20214;-68
2022/02/03 07:48:24;;;;;;;0.77;0.77;;;-6.10;99.90;;;;;;5047702;28;21223;-67
2022/02/03 07:50:49;;;;;;;1.07;1.07;;;-6.10;99.90;;;;;;5047867;28;20675;-67
2022/02/03 07:53:15;;;;;;;1.00;0.97;;;-6.10;99.90;;;;;;5048316;28;20229;-68
2022/02/03 07:55:41;;;;;;;1.10;1.10;;;-6.10;99.90;;;;;;5049051;28;20225;-67
2022/02/03 07:58:07;;;;;;;0.93;0.93;;;-6.20;99.90;;;;;;5049097;28;20205;-66
2022/02/03 08:00:33;;;;;;;0.90;0.90;;;-6.20;99.90;;;;;;5047575;28;20198;-68
2022/02/03 08:02:58;;;;;;;0.80;0.80;;;-6.20;99.90;;;;;;5044065;28;20236;-67
2022/02/03 08:05:26;;;;;;;0.97;0.97;;;-6.10;99.90;;;;;;5046453;28;20201;-67
2022/02/03 08:08:47;;;;;;;1.43;1.33;;;-6.10;99.90;;;;;;5047665;28;20672;-67
2022/02/03 08:10:47;;;;;;;0.87;0.87;;;-6.10;99.90;;;;;;5032514;28;20313;-67
2022/02/03 08:13:20;;;;;;;0.80;0.80;;;-6.00;99.90;;;;;;5045888;28;20205;-67
2022/02/03 08:15:48;;;;;;;0.80;0.80;;;-6.00;99.90;;;;;;5045262;28;20240;-67
2022/02/03 08:18:18;;;;;;;0.80;0.80;;;-6.00;99.90;;;;;;5033497;28;20739;-66
2022/02/03 08:20:52;;;;;;;0.77;0.77;;;-6.00;99.90;;;;;;5043093;28;20233;-66
2022/02/03 08:26:07;;;;;;;0.90;0.90;;;-6.00;99.90;;;;;;5046517;28;20209;-67
2022/02/03 08:29:09;;;;;;;0.90;0.90;;;-5.90;99.90;;;;;;5046163;28;20205;-67
2022/02/03 08:32:16;;;;;;;0.83;0.83;;;-5.90;99.90;;;;;;5048225;28;20214;-67
2022/02/03 08:34:33;;;;;;;2.73;2.20;;;-5.90;99.90;;;;;;5027954;28;20218;-68
2022/02/03 08:37:01;;;;;;;0.80;0.80;;;-5.90;99.90;;;;;;5013881;28;20577;-67
2022/02/03 08:39:32;;;;;;;0.80;0.80;;;-5.90;99.90;;;;;;5047901;28;20198;-67
2022/02/03 08:41:59;;;;;;;1.00;1.00;;;-5.90;99.90;;;;;;5011507;28;20199;-68
2022/02/03 08:44:25;;;;;;;0.80;0.80;;;-5.90;99.90;;;;;;5048966;28;20209;-67
2022/02/03 08:46:50;;;;;;;0.90;0.90;;;-5.90;99.90;;;;;;5047604;28;20696;-67
2022/02/03 08:49:18;;;;;;;0.90;0.90;;;-5.90;99.90;;;;;;5049245;28;20206;-67
2022/02/03 08:51:46;;;;;;;0.90;0.90;;;-6.00;99.90;;;;;;5047568;28;20209;-67
2022/02/03 08:54:13;;;;;;;0.80;0.80;;;-5.90;99.90;;;;;;5035797;28;20204;-66
2022/02/03 08:57:06;;;;;;;1.00;1.00;;;-6.00;99.90;;;;;;5048385;28;21214;-66
2022/02/03 09:59:46;;;;;;;0.80;0.80;;;-5.10;99.90;;;;;;5048645;28;20292;-68
2022/02/03 10:02:18;;;;;;;0.83;0.83;;;-5.20;99.90;;;;;;5048650;28;20601;-67
2022/02/03 10:04:59;;;;;;;0.90;0.90;;;-5.10;99.90;;;;;;5047083;28;20214;-67
2022/02/03 10:07:32;;;;;;;0.80;0.80;;;-5.10;99.90;;;;;;5040820;28;20527;-67
2022/02/03 10:09:59;;;;;;;0.90;0.90;;;-5.20;99.90;;;;;;5033205;28;20206;-67
2022/02/03 10:12:35;;;;;;;0.80;0.80;;;-5.20;99.90;;;;;;5032983;28;20259;-67
2022/02/03 10:15:02;;;;;;;0.80;0.80;;;-5.00;99.90;;;;;;5034076;28;20217;-67
2022/02/03 10:17:45;;;;;;;0.90;0.90;;;-4.80;99.90;;;;;;5040246;28;20284;-67
2022/02/03 10:20:17;;;;;;;0.90;0.90;;;-4.70;99.90;;;;;;5048235;28;20256;-67
2022/02/03 10:22:50;;;;;;;0.90;0.90;;;-4.70;99.90;;;;;;5047868;28;20606;-67
2022/02/03 10:25:25;;;;;;;0.90;0.90;;;-4.70;99.90;;;;;;5048106;28;20738;-67
2022/02/03 10:28:00;;;;;;;0.80;0.80;;;-4.80;99.90;;;;;;5049069;28;20209;-67
2022/02/03 10:30:33;;;;;;;0.90;0.90;;;-4.80;99.90;;;;;;5039145;28;20574;-67
2022/02/03 10:32:59;;;;;;;0.80;0.80;;;-4.80;99.90;;;;;;5041594;28;20227;-67
2022/02/03 10:41:18;;;;;;;0.70;0.70;;;-4.90;99.90;;;;;;5036927;28;20745;-68
2022/02/03 10:49:12;;;;;;;0.70;0.70;;;-4.70;99.90;;;;;;5049752;28;20205;-68
2022/02/03 11:05:42;;;;;;;0.90;0.90;;;-4.40;99.90;;;;;;5031108;28;20582;-68
2022/02/03 11:08:15;;;;;;;0.80;0.80;;;-4.30;99.90;;;;;;5037724;28;20260;-67
2022/02/03 11:10:44;;;;;;;0.90;0.90;;;-4.20;99.90;;;;;;5031768;28;20657;-68
2022/02/03 11:13:13;;;;;;;1.00;1.00;;;-4.30;99.90;;;;;;5032128;28;20202;-67
2022/02/03 11:15:41;;;;;;;0.80;0.80;;;-4.40;99.90;;;;;;5041146;28;20236;-67
2022/02/03 11:18:08;;;;;;;0.80;0.80;;;-4.20;99.90;;;;;;5048221;28;20544;-67
2022/02/03 11:20:38;;;;;;;0.63;0.63;;;-4.20;99.90;;;;;;5038149;28;20623;-67
2022/02/03 11:28:36;;;;;;;0.80;0.80;;;-4.20;99.90;;;;;;5042749;28;20311;-69
2022/02/03 11:37:00;;;;;;;0.90;0.90;;;-4.20;99.90;;;;;;5013740;28;20226;-68
2022/02/03 11:50:28;;;;;;;0.80;0.80;;;-4.00;99.90;;;;;;5042112;28;20285;-68
2022/02/03 11:53:27;;;;;;;1.07;1.07;;;-4.00;99.90;;;;;;5040577;28;20216;-67
2022/02/03 12:04:28;;;;;;;0.80;0.80;;;-4.00;99.90;;;;;;5045930;28;20212;-68
2022/02/03 12:24:42;;;;;;;0.80;0.80;;;-3.90;99.90;;;;;;4950681;28;20718;-68
2022/02/03 12:27:54;;;;;;;0.80;0.80;;;-3.90;99.90;;;;;;4954879;29;20209;-67
2022/02/03 12:29:51;;;;;;;0.80;0.80;;;-3.90;99.90;;;;;;4952031;29;20684;-68
2022/02/03 12:37:54;;;;;;;0.70;0.70;;;-4.00;99.90;;;;;;4954513;29;20770;-67
2022/02/03 12:40:29;;;;;;;0.80;0.80;;;-4.00;99.90;;;;;;4939500;28;20200;-67
2022/02/03 12:43:25;;;;;;;0.90;0.90;;;-4.00;99.90;;;;;;4968845;28;20583;-68
2022/02/03 12:45:50;;;;;;;0.80;0.80;;;-4.00;99.90;;;;;;5049555;28;20202;-67
2022/02/03 12:48:27;;;;;;;0.80;0.80;;;-3.90;99.90;;;;;;5048394;28;20572;-68
2022/02/03 12:50:54;;;;;;;1.63;1.53;;;-3.90;99.90;;;;;;5047142;28;20626;-67
2022/02/03 12:53:21;;;;;;;0.90;0.90;;;-3.90;99.90;;;;;;5035904;28;20201;-68
2022/02/03 12:55:51;;;;;;;0.90;0.90;;;-3.90;99.90;;;;;;5047205;28;20245;-68
2022/02/03 12:58:21;;;;;;;0.90;0.90;;;-4.00;99.90;;;;;;5050091;28;20281;-66
2022/02/03 13:03:42;;;;;;;0.80;0.80;;;-4.10;99.90;;;;;;5048851;28;20305;-68
2022/02/03 13:06:12;;;;;;;0.90;0.90;;;-4.10;99.90;;;;;;5036749;28;20600;-67
2022/02/03 13:08:45;;;;;;;0.90;0.87;;;-4.10;99.90;;;;;;5050489;28;20229;-66
2022/02/03 13:11:27;;;;;;;0.77;0.77;;;-4.10;99.90;;;;;;5036246;28;20572;-67
2022/02/03 13:14:04;;;;;;;0.90;0.90;;;-4.10;99.90;;;;;;5049499;28;20206;-67
2022/02/03 13:16:31;;;;;;;0.77;0.77;;;-4.10;99.90;;;;;;5049203;28;20239;-67
2022/02/03 13:19:03;;;;;;;0.70;0.70;;;-4.20;99.90;;;;;;5050284;28;20205;-67
2022/02/03 13:26:43;;;;;;;0.80;0.80;;;-4.00;99.90;;;;;;5050486;28;20194;-66
2022/02/03 13:29:15;;;;;;;1.40;1.30;;;-4.10;99.90;;;;;;5050152;28;20548;-66
2022/02/03 13:31:47;;;;;;;0.80;0.80;;;-4.10;99.90;;;;;;5050086;28;20555;-67
2022/02/03 13:34:47;;;;;;;0.70;0.70;;;-4.10;99.90;;;;;;5050123;28;20198;-67
2022/02/03 13:37:20;;;;;;;0.80;0.80;;;-4.00;99.90;;;;;;5046592;28;20304;-67
2022/02/03 13:40:10;;;;;;;0.90;0.90;;;-4.00;99.90;;;;;;5049897;28;20201;-67
2022/02/03 13:42:38;;;;;;;0.90;0.90;;;-3.90;99.90;;;;;;5048605;28;20209;-67
2022/02/03 13:45:06;;;;;;;0.90;0.90;;;-4.00;99.90;;;;;;5048694;28;20267;-67
2022/02/03 13:47:35;;;;;;;0.95;0.95;;;-4.00;99.90;;;;;;5049758;28;20280;-67
2022/02/03 13:50:11;;;;;;;0.73;0.73;;;-4.00;99.90;;;;;;5049873;28;20197;-67
2022/02/03 13:52:45;;;;;;;0.82;0.82;;;-3.90;99.90;;;;;;5048565;28;20572;-66
2022/02/03 14:14:51;;;;;;;0.90;0.90;;;-3.90;99.90;;;;;;5049458;28;20216;-67
2022/02/03 14:17:52;;;;;;;0.85;0.85;;;-3.90;99.90;;;;;;5050030;28;20563;-67
2022/02/03 14:28:04;;;;;;;0.90;0.90;;;-4.00;99.90;;;;;;5047993;28;20337;-66
2022/02/03 14:30:30;;;;;;;0.82;0.82;;;-4.00;99.90;;;;;;5046535;28;20226;-67
2022/02/03 14:32:58;;;;;;;0.90;0.90;;;-3.90;99.90;;;;;;5046673;28;20287;-69
2022/02/03 14:35:24;;;;;;;6.67;1.10;;;-3.90;99.90;;;;;;5014094;28;20191;-70
2022/02/03 14:42:58;;;;;;;0.90;0.90;;;-3.80;99.90;;;;;;5032397;28;20206;-70
2022/02/03 14:45:24;;;;;;;0.82;0.82;;;-3.90;99.90;;;;;;5048728;28;20216;-72
2022/02/03 14:47:49;;;;;;;0.90;0.90;;;-3.90;99.90;;;;;;5049947;28;20288;-68
2022/02/03 14:50:15;;;;;;;0.82;0.82;;;-4.00;99.90;;;;;;5049362;28;20201;-68
2022/02/03 14:53:03;;;;;;;1.80;1.70;;;-4.00;99.90;;;;;;5032653;28;20725;-68
2022/02/03 14:58:26;;;;;;;0.77;0.77;;;-3.90;99.90;;;;;;5016191;28;20696;-71
2022/02/03 15:00:52;;;;;;;0.85;0.85;;;-3.90;99.90;;;;;;5030855;28;20984;-69
2022/02/03 15:03:19;;;;;;;0.80;0.80;;;-3.90;99.90;;;;;;5031595;28;20240;-70
2022/02/03 15:05:46;;;;;;;0.93;0.93;;;-3.90;99.90;;;;;;5048827;28;20284;-70
2022/02/03 15:08:18;;;;;;;0.80;0.80;;;-4.00;99.90;;;;;;5048936;28;20193;-68
2022/02/03 15:13:34;;;;;;;0.80;0.80;;;-4.10;99.90;;;;;;5049019;28;20207;-69
2022/02/03 15:16:03;;;;;;;0.90;0.90;;;-4.10;99.90;;;;;;5014193;28;20220;-68
2022/02/03 15:18:29;;;;;;;0.80;0.80;;;-4.00;99.90;;;;;;5048545;28;20205;-68
2022/02/03 15:20:56;;;;;;;0.90;0.90;;;-4.10;99.90;;;;;;5047480;28;20212;-68
2022/02/03 15:23:22;;;;;;;0.80;0.80;;;-4.10;99.90;;;;;;5048562;28;20224;-69
2022/02/03 15:25:48;;;;;;;0.70;0.70;;;-4.10;99.90;;;;;;5048959;28;20205;-69
2022/02/03 15:28:14;;;;;;;0.80;0.80;;;-4.10;99.90;;;;;;5048120;28;20202;-68
2022/02/03 15:30:40;;;;;;;0.90;0.90;;;-4.10;99.90;;;;;;5046685;28;20216;-68
2022/02/03 15:33:05;;;;;;;0.80;0.80;;;-4.10;99.90;;;;;;5048057;28;20216;-68
2022/02/03 15:35:35;;;;;;;0.80;0.80;;;-4.10;99.90;;;;;;5046832;28;20201;-68
2022/02/03 15:38:04;;;;;;;0.80;0.80;;;-4.10;99.90;;;;;;5046991;28;20201;-69
2022/02/03 15:40:30;;;;;;;0.75;0.75;;;-4.10;99.90;;;;;;5046874;28;20206;-69
2022/02/03 15:43:02;;;;;;;1.48;1.38;;;-4.10;99.90;;;;;;5047869;28;20212;-69
2022/02/03 15:45:50;;;;;;;0.90;0.90;;;-4.10;99.90;;;;;;5047819;28;20205;-68
2022/02/03 15:48:29;;;;;;;0.95;0.95;;;-4.10;99.90;;;;;;5046748;28;20197;-69
2022/02/03 16:17:19;;;;;;;0.70;0.70;;;-4.00;99.90;;;;;;5052131;28;20206;-68
2022/02/03 16:22:24;;;;;;;0.77;0.77;;;-4.00;99.90;;;;;;5052327;28;20209;-67
2022/02/03 16:24:58;;;;;;;0.80;0.80;;;-4.00;99.90;;;;;;5052223;28;20243;-69
2022/02/03 16:41:26;;;;;;;0.80;0.80;;;-4.00;99.90;;;;;;5051405;28;20343;-69
2022/02/03 16:54:29;;;;;;;0.88;0.88;;;-4.00;99.90;;;;;;5049774;28;20236;-68
2022/02/03 16:57:00;;;;;;;0.80;0.80;;;-4.00;99.90;;;;;;5048948;28;20272;-68
2022/02/03 16:59:28;;;;;;;0.80;0.80;;;-4.00;99.90;;;;;;5047264;28;20721;-68
2022/02/03 17:01:54;;;;;;;0.90;0.90;;;-4.10;99.90;;;;;;5050643;28;20212;-68
2022/02/03 17:04:20;;;;;;;1.00;1.00;;;-4.00;99.90;;;;;;5049532;28;20209;-69
2022/02/03 17:06:46;;;;;;;0.80;0.80;;;-4.00;99.90;;;;;;5048408;28;20563;-69
2022/02/03 17:09:13;;;;;;;0.93;0.93;;;-4.00;99.90;;;;;;5046308;28;20206;-68
2022/02/03 17:11:39;;;;;;;0.88;0.88;;;-3.90;99.90;;;;;;5036660;28;20206;-68
2022/02/03 17:14:06;;;;;;;0.80;0.80;;;-3.90;99.90;;;;;;5049540;28;20692;-69
2022/02/03 17:16:31;;;;;;;0.93;0.90;;;-3.90;99.90;;;;;;5049346;28;20206;-69
2022/02/03 17:18:57;;;;;;;0.80;0.80;;;-3.90;99.90;;;;;;5050403;28;20229;-70
2022/02/03 17:21:28;;;;;;;0.70;0.70;;;-3.90;99.90;;;;;;5050742;28;20237;-70
2022/02/03 17:23:55;;;;;;;0.80;0.80;;;-3.90;99.90;;;;;;5033122;28;20304;-69
2022/02/03 17:26:29;;;;;;;0.70;0.70;;;-3.90;99.90;;;;;;5050859;28;20277;-71
2022/02/03 17:29:19;;;;;;;0.80;0.80;;;-3.90;99.90;;;;;;5031824;28;20268;-69
2022/02/03 18:09:07;;;;;;;0.70;0.70;;;-3.80;99.90;;;;;;5049056;28;20669;-68
2022/02/03 18:30:52;;;;;;;1.40;1.30;;;-3.60;99.90;;;;;;5048129;28;20214;-69
2022/02/03 18:52:05;;;;;;;1.10;1.10;;;-3.70;99.90;;;;;;5047307;28;20212;-69
2022/02/03 18:54:55;;;;;;;0.90;0.90;;;-3.60;99.90;;;;;;5031562;28;20235;-69
2022/02/03 18:57:42;;;;;;;0.80;0.80;;;-3.50;99.90;;;;;;5049472;28;20229;-70
2022/02/03 19:03:06;;;;;;;0.80;0.80;;;-3.50;99.90;;;;;;5047753;28;20548;-69
2022/02/03 19:23:13;;;;;;;0.80;0.80;;;-3.30;99.90;;;;;;5046137;28;20254;-69
2022/02/03 19:27:02;;;;;;;0.80;0.80;;;-3.30;99.90;;;;;;5047161;28;20240;-68
2022/02/03 20:10:34;;;;;;;0.90;0.90;;;-3.00;99.90;;;;;;5046720;28;20220;-70
2022/02/03 20:12:54;;;;;;;1.08;1.08;;;-3.00;99.90;;;;;;5047489;28;20205;-70
2022/02/03 20:15:22;;;;;;;0.80;0.80;;;-3.10;99.90;;;;;;5045201;28;20205;-70
2022/02/03 20:17:48;;;;;;;0.88;0.88;;;-3.00;99.90;;;;;;5044659;28;20213;-70
2022/02/03 20:20:13;;;;;;;0.80;0.80;;;-3.00;99.90;;;;;;5044188;28;20201;-70
2022/02/03 20:22:40;;;;;;;0.75;0.75;;;-3.00;99.90;;;;;;5047446;28;20240;-71
2022/02/03 20:25:08;;;;;;;0.70;0.70;;;-3.00;99.90;;;;;;5046197;28;20651;-71
2022/02/03 20:27:34;;;;;;;4.55;2.65;;;-3.00;99.90;;;;;;5047366;28;20205;-70
2022/02/03 20:30:00;;;;;;;0.80;0.80;;;-3.00;99.90;;;;;;5033907;28;20198;-70
2022/02/03 20:32:29;;;;;;;0.80;0.80;;;-3.00;99.90;;;;;;5047678;28;20677;-70
2022/02/03 20:34:57;;;;;;;1.80;1.05;;;-3.00;99.90;;;;;;5014067;28;20678;-70
2022/02/03 20:37:24;;;;;;;0.80;0.80;;;-3.00;99.90;;;;;;5046326;28;20202;-70
2022/02/03 20:39:49;;;;;;;1.13;1.08;;;-3.00;99.90;;;;;;5032070;28;20206;-70
2022/02/03 20:42:16;;;;;;;0.85;0.85;;;-2.90;99.90;;;;;;5047635;28;20201;-70
2022/02/03 20:44:46;;;;;;;0.80;0.80;;;-2.90;99.90;;;;;;5046049;28;20217;-70
2022/02/03 20:47:12;;;;;;;4.78;2.08;;;-2.90;99.90;;;;;;5051143;28;20209;-70
2022/02/03 20:49:39;;;;;;;0.90;0.90;;;-2.90;99.90;;;;;;5050893;28;20619;-71
2022/02/03 20:52:05;;;;;;;0.80;0.80;;;-2.80;99.90;;;;;;5049935;28;20248;-70
2022/02/03 20:54:31;;;;;;;0.90;0.90;;;-2.90;99.90;;;;;;5049879;28;20710;-70
2022/02/03 20:56:57;;;;;;;0.88;0.88;;;-2.80;99.90;;;;;;5050693;28;20225;-70
2022/02/03 20:59:28;;;;;;;0.80;0.80;;;-2.70;99.90;;;;;;5048340;28;20266;-71
2022/02/03 21:01:56;;;;;;;0.80;0.80;;;-2.80;99.90;;;;;;5048497;28;20216;-70
2022/02/03 21:04:56;;;;;;;0.80;0.80;;;-2.70;99.90;;;;;;5041624;28;20351;-70
2022/02/03 21:07:19;;;;;;;0.80;0.80;;;-2.70;99.90;;;;;;5035240;28;20206;-71
2022/02/03 21:09:48;;;;;;;0.60;0.60;;;-2.70;99.90;;;;;;5037350;28;20209;-70
2022/02/03 21:12:14;;;;;;;0.80;0.80;;;-2.70;99.90;;;;;;5044484;28;20205;-70
2022/02/03 21:14:40;;;;;;;0.70;0.70;;;-2.60;99.90;;;;;;5049534;28;20292;-70
2022/02/03 21:17:05;;;;;;;0.80;0.80;;;-2.60;99.90;;;;;;5049485;28;20254;-70
2022/02/03 21:19:31;;;;;;;0.68;0.68;;;-2.60;99.90;;;;;;5049224;28;20212;-70
2022/02/03 21:21:57;;;;;;;0.95;0.95;;;-2.60;99.90;;;;;;5043493;28;20206;-70
2022/02/03 21:24:36;;;;;;;0.70;0.70;;;-2.50;99.90;;;;;;5035828;28;20212;-71
2022/02/03 21:27:04;;;;;;;0.80;0.80;;;-2.50;99.90;;;;;;5040340;28;20265;-71
2022/02/03 21:29:32;;;;;;;0.90;0.90;;;-2.50;99.90;;;;;;5050227;28;20202;-71
2022/02/03 21:32:00;;;;;;;0.70;0.70;;;-2.50;99.90;;;;;;5046835;28;20201;-70
2022/02/03 21:34:26;;;;;;;0.73;0.73;;;-2.50;99.90;;;;;;5049001;28;20709;-71
2022/02/03 21:36:55;;;;;;;0.70;0.70;;;-2.40;99.90;;;;;;5049055;28;20209;-71
2022/02/03 21:39:21;;;;;;;0.73;0.73;;;-2.40;99.90;;;;;;5048778;28;20197;-70
2022/02/03 21:41:47;;;;;;;0.70;0.70;;;-2.40;99.90;;;;;;5047616;28;20760;-70
2022/02/03 21:44:15;;;;;;;0.70;0.70;;;-2.40;99.90;;;;;;5047862;28;20232;-70
2022/02/03 21:46:46;;;;;;;1.25;1.15;;;-2.30;99.90;;;;;;5048701;28;20202;-70
2022/02/03 21:49:15;;;;;;;0.75;0.75;;;-2.30;99.90;;;;;;5049052;28;20198;-70
2022/02/03 21:51:43;;;;;;;0.80;0.80;;;-2.30;99.90;;;;;;5050263;28;20293;-70
2022/02/03 21:54:10;;;;;;;0.70;0.70;;;-2.30;99.90;;;;;;5049686;28;20669;-70
2022/02/03 21:56:37;;;;;;;4.22;3.45;;;-2.30;99.90;;;;;;5048732;28;20229;-70
2022/02/03 21:59:07;;;;;;;0.90;0.90;;;-2.20;99.90;;;;;;5033480;28;20236;-72
2022/02/03 22:01:35;;;;;;;0.70;0.70;;;-2.20;99.90;;;;;;5050628;28;20209;-71
2022/02/03 22:04:00;;;;;;;0.70;0.70;;;-2.20;99.90;;;;;;5048517;28;20266;-70
2022/02/03 22:06:26;;;;;;;0.93;0.93;;;-2.20;99.90;;;;;;5018004;28;20210;-69
2022/02/03 22:08:52;;;;;;;0.60;0.60;;;-2.10;99.90;;;;;;5044280;28;20284;-70
2022/02/03 22:11:17;;;;;;;0.75;0.75;;;-2.10;99.90;;;;;;5043375;28;20285;-70
2022/02/03 22:13:43;;;;;;;0.80;0.80;;;-2.10;99.90;;;;;;5046959;28;20208;-71
2022/02/03 22:16:13;;;;;;;0.80;0.80;;;-2.00;99.90;;;;;;5048376;28;20201;-71
2022/02/03 22:18:38;;;;;;;1.10;1.08;;;-2.00;99.90;;;;;;5037035;28;20848;-71
2022/02/03 22:21:20;;;;;;;0.90;0.90;;;-1.90;99.90;;;;;;5034312;28;20210;-70
2022/02/03 22:27:26;;;;;;;1.00;1.00;;;-1.90;99.90;;;;;;5048444;28;20312;-70
2022/02/03 22:45:47;;;;;;;1.00;0.85;;;-1.70;99.90;;;;;;5048295;28;20650;-71
2022/02/03 22:50:48;;;;;;;0.70;0.70;;;-1.70;99.90;;;;;;5049022;28;20204;-70
2022/02/03 22:53:15;;;;;;;0.70;0.70;;;-1.60;99.90;;;;;;5048762;28;20202;-71
2022/02/03 22:55:40;;;;;;;1.42;1.33;;;-1.60;99.90;;;;;;5032087;28;20567;-71
2022/02/03 23:01:03;;;;;;;0.60;0.60;;;-1.60;99.90;;;;;;5014681;28;20202;-72
2022/02/03 23:03:30;;;;;;;1.25;1.17;;;-1.50;99.90;;;;;;5013610;28;20214;-70
2022/02/03 23:05:57;;;;;;;0.80;0.80;;;-1.50;99.90;;;;;;5016587;28;20292;-71
2022/02/03 23:08:38;;;;;;;0.80;0.80;;;-1.50;99.90;;;;;;5046774;28;20229;-71
2022/02/03 23:18:59;;;;;;;0.77;0.77;;;-1.40;99.90;;;;;;5033007;28;20202;-70
2022/02/03 23:23:51;;;;;;;0.80;0.80;;;-1.40;99.90;;;;;;5044494;28;20256;-70
2022/02/03 23:26:20;;;;;;;0.70;0.70;;;-1.30;99.90;;;;;;5033060;28;20201;-71
2022/02/03 23:28:46;;;;;;;0.60;0.60;;;-1.30;99.90;;;;;;5030543;28;20260;-71
2022/02/03 23:31:12;;;;;;;0.80;0.80;;;-1.30;99.90;;;;;;5035094;28;20603;-70
2022/02/03 23:33:38;;;;;;;0.70;0.70;;;-1.20;99.90;;;;;;5046099;28;20202;-71
2022/02/03 23:36:04;;;;;;;0.63;0.63;;;-1.20;99.90;;;;;;5033879;28;20225;-70
